Time;durP1;ratioP1;P1;durP2;ratioP2;P2;SDS_P1;SDS_P2;PMS_P1;PMS_P2;Temp;Humidity;BMP_temperature;BMP_pressure;BME280_temperature;BME280_humidity;BME280_pressure;Samples;Min_cycle;Max_cycle;Signal;HPM_P1;HPM_P2
2022/12/18 00:02:21;;;;;;;9.68;4.35;;;;;;;-1.27;72.63;102184.94;5016586;28;20046;-69
2022/12/18 00:04:48;;;;;;;8.55;3.90;;;;;;;-1.30;72.37;102180.53;5015792;28;20045;-69
2022/12/18 00:07:16;;;;;;;8.23;4.30;;;;;;;-1.25;72.28;102189.34;5016309;28;20045;-70
2022/12/18 00:09:43;;;;;;;8.10;3.88;;;;;;;-1.24;72.48;102196.25;5015540;28;20045;-69
2022/12/18 00:12:10;;;;;;;9.57;3.78;;;;;;;-1.23;72.59;102190.28;5014233;28;20049;-70
2022/12/18 00:14:36;;;;;;;6.95;3.47;;;;;;;-1.22;72.46;102184.38;5010432;28;20117;-69
2022/12/18 00:17:03;;;;;;;8.20;3.92;;;;;;;-1.21;72.60;102186.13;5014054;28;20115;-69
2022/12/18 00:19:30;;;;;;;8.25;3.53;;;;;;;-1.20;72.71;102182.75;5012089;28;20115;-70
2022/12/18 00:21:58;;;;;;;9.93;3.95;;;;;;;-1.19;72.33;102181.97;5015736;28;20545;-69
2022/12/18 00:24:26;;;;;;;8.80;3.90;;;;;;;-1.18;72.48;102178.59;5012702;28;20042;-69
2022/12/18 00:26:52;;;;;;;9.05;4.35;;;;;;;-1.17;72.73;102193.22;5013662;28;20050;-69
2022/12/18 00:29:19;;;;;;;10.13;3.75;;;;;;;-1.15;72.25;102195.84;5014182;28;20044;-69
2022/12/18 00:31:46;;;;;;;9.43;3.97;;;;;;;-1.15;73.01;102201.84;5015660;28;20037;-69
2022/12/18 00:34:13;;;;;;;9.95;4.20;;;;;;;-1.13;72.70;102207.06;5013832;28;20107;-69
2022/12/18 00:36:41;;;;;;;8.10;3.28;;;;;;;-1.10;72.35;102196.09;5015378;28;20095;-69
2022/12/18 00:39:08;;;;;;;8.80;4.10;;;;;;;-1.11;72.77;102189.19;5014800;28;20463;-69
2022/12/18 00:44:21;;;;;;;11.00;3.25;;;;;;;-1.08;72.50;102192.81;5016814;28;20052;-70
2022/12/18 00:46:48;;;;;;;8.23;4.10;;;;;;;-1.07;72.42;102185.97;5017539;28;20076;-69
2022/12/18 00:49:16;;;;;;;8.80;4.22;;;;;;;-1.07;72.80;102179.16;5010518;28;20126;-69
2022/12/18 00:51:43;;;;;;;6.88;4.03;;;;;;;-1.06;72.53;102174.91;5013440;28;20099;-69
2022/12/18 00:54:11;;;;;;;7.82;3.40;;;;;;;-1.04;72.69;102174.19;5011405;28;20053;-69
2022/12/18 00:56:40;;;;;;;9.10;3.63;;;;;;;-1.03;72.51;102172.50;5015065;28;20057;-69
2022/12/18 00:59:07;;;;;;;10.45;4.35;;;;;;;-1.02;72.71;102166.59;5011456;28;20112;-69
2022/12/18 01:01:34;;;;;;;9.15;4.25;;;;;;;-1.01;72.52;102176.03;5015749;28;20107;-70
2022/12/18 01:04:02;;;;;;;7.80;3.83;;;;;;;-1.00;72.90;102170.97;5015842;28;20053;-69
2022/12/18 01:06:29;;;;;;;10.00;3.42;;;;;;;-1.05;72.71;102161.28;5010748;28;20058;-69
2022/12/18 01:08:56;;;;;;;7.80;3.47;;;;;;;-1.00;72.99;102170.97;5016111;28;20057;-69
2022/12/18 01:11:23;;;;;;;13.63;3.75;;;;;;;-0.97;72.63;102175.38;5016462;28;20802;-69
2022/12/18 01:13:53;;;;;;;8.68;4.50;;;;;;;-0.97;73.02;102176.28;5015825;28;20071;-69
2022/12/18 01:16:20;;;;;;;8.05;3.95;;;;;;;-0.95;72.90;102178.91;5015155;28;20049;-69
2022/12/18 01:18:47;;;;;;;9.15;3.38;;;;;;;-0.94;72.47;102180.66;5013749;28;20464;-69
2022/12/18 01:21:16;;;;;;;7.07;3.28;;;;;;;-0.93;72.51;102174.75;5010328;28;20488;-69
2022/12/18 01:23:42;;;;;;;10.48;3.95;;;;;;;-0.93;72.90;102177.31;5013554;28;20115;-69
2022/12/18 01:26:11;;;;;;;7.75;4.15;;;;;;;-0.95;72.61;102163.53;5014481;28;20108;-68
2022/12/18 01:28:38;;;;;;;9.05;3.22;;;;;;;-0.91;72.71;102180.84;5012651;28;20052;-70
2022/12/18 01:31:19;;;;;;;10.45;3.25;;;;;;;-0.89;72.44;102181.78;5017693;28;20049;-69
2022/12/18 01:33:46;;;;;;;6.28;3.08;;;;;;;-0.95;72.49;102177.22;5021656;28;20045;-70
2022/12/18 01:36:18;;;;;;;8.88;4.05;;;;;;;-0.87;72.32;102203.28;5018391;28;20046;-69
2022/12/18 01:38:45;;;;;;;7.07;3.10;;;;;;;-0.86;72.35;102191.31;5012392;28;20104;-69
2022/12/18 01:41:13;;;;;;;11.00;5.25;;;;;;;-0.86;73.15;102192.19;5014720;28;20518;-70
2022/12/18 01:43:45;;;;;;;8.85;3.80;;;;;;;-0.84;72.89;102197.41;5016741;28;20077;-71
2022/12/18 01:46:12;;;;;;;6.45;3.30;;;;;;;-0.84;72.45;102192.28;5018358;28;20053;-69
2022/12/18 01:48:41;;;;;;;5.68;3.42;;;;;;;-0.83;72.75;102192.34;5020426;28;20088;-70
2022/12/18 01:51:10;;;;;;;6.95;4.20;;;;;;;-0.82;72.58;102189.00;5017633;28;20061;-69
2022/12/18 01:53:39;;;;;;;14.10;3.83;;;;;;;-0.81;72.34;102183.06;5017215;28;20045;-69
2022/12/18 01:56:08;;;;;;;11.88;4.70;;;;;;;-0.79;72.70;102181.44;5015494;28;20049;-69
2022/12/18 01:58:42;;;;;;;9.40;3.67;;;;;;;-0.77;72.65;102174.72;5019989;28;20050;-69
2022/12/18 02:01:10;;;;;;;11.60;4.90;;;;;;;-0.76;72.83;102179.03;5020258;28;20079;-70
2022/12/18 02:03:36;;;;;;;11.20;3.78;;;;;;;-0.76;72.63;102163.66;5015044;28;20057;-69
2022/12/18 02:06:11;;;;;;;6.47;3.10;;;;;;;-0.79;72.63;102152.34;5018222;28;20791;-69
2022/12/18 02:08:49;;;;;;;7.20;4.18;;;;;;;-0.74;72.33;102163.69;5015797;28;20482;-69
2022/12/18 02:11:23;;;;;;;8.52;3.50;;;;;;;-0.73;72.54;102163.78;5019253;28;20149;-69
2022/12/18 02:13:56;;;;;;;10.13;4.73;;;;;;;-0.72;73.06;102159.53;5019567;28;20065;-69
2022/12/18 02:16:30;;;;;;;7.78;4.25;;;;;;;-0.72;73.03;102150.16;5014177;28;20061;-69
2022/12/18 02:19:00;;;;;;;11.93;4.60;;;;;;;-0.71;73.08;102164.75;5020393;28;20050;-69
2022/12/18 02:21:37;;;;;;;11.02;5.18;;;;;;;-0.73;72.37;102150.97;5018342;28;20479;-69
2022/12/18 02:24:17;;;;;;;11.77;3.90;;;;;;;-0.69;72.17;102160.56;5018727;28;20095;-69
2022/12/18 02:26:49;;;;;;;9.77;4.35;;;;;;;-0.69;72.24;102160.56;5019203;28;20061;-70
2022/12/18 02:29:21;;;;;;;10.70;4.10;;;;;;;-0.68;72.47;102159.78;5019457;28;20489;-69
2022/12/18 02:31:53;;;;;;;9.73;4.43;;;;;;;-0.66;72.51;102161.53;5014544;28;20046;-69
2022/12/18 02:34:22;;;;;;;7.60;3.75;;;;;;;-0.66;72.33;102167.53;5016450;28;20041;-70
2022/12/18 02:36:50;;;;;;;7.88;3.65;;;;;;;-0.66;72.74;102162.41;5019096;28;20559;-69
2022/12/18 02:39:18;;;;;;;9.30;5.15;;;;;;;-0.64;72.73;102171.06;5018063;28;20053;-69
2022/12/18 02:41:48;;;;;;;7.57;4.50;;;;;;;-0.62;72.95;102166.91;5018642;28;20095;-69
2022/12/18 02:44:15;;;;;;;9.13;4.53;;;;;;;-0.63;72.83;102172.81;5017071;28;20493;-69
2022/12/18 02:46:44;;;;;;;11.10;4.88;;;;;;;-0.65;72.77;102151.34;5018999;28;20042;-69
2022/12/18 02:49:27;;;;;;;10.32;3.88;;;;;;;-0.60;72.66;102161.81;5018062;28;20087;-69
2022/12/18 02:51:57;;;;;;;10.13;3.28;;;;;;;-0.60;72.47;102157.56;5018789;28;20049;-69
2022/12/18 02:54:45;;;;;;;12.77;4.70;;;;;;;-0.59;72.83;102154.22;5012153;28;20041;-69
2022/12/18 02:57:24;;;;;;;8.00;3.47;;;;;;;-0.59;72.47;102145.63;5022246;28;20057;-69
2022/12/18 02:59:59;;;;;;;7.68;3.53;;;;;;;-0.59;72.77;102136.25;5017068;28;20056;-69
2022/12/18 03:02:31;;;;;;;7.80;3.30;;;;;;;-0.58;72.44;102135.44;5016358;28;20057;-69
2022/12/18 03:05:05;;;;;;;8.18;3.13;;;;;;;-0.58;72.05;102137.13;5019039;28;20049;-69
2022/12/18 03:07:39;;;;;;;5.20;3.38;;;;;;;-0.58;72.17;102129.41;5013864;28;20157;-69
2022/12/18 03:10:09;;;;;;;5.68;2.75;;;;;;;-0.56;72.59;102127.81;5015692;28;20054;-72
2022/12/18 03:12:43;;;;;;;5.80;2.42;;;;;;;-0.57;72.80;102126.94;5018111;28;20046;-73
2022/12/18 03:15:13;;;;;;;8.27;4.03;;;;;;;-0.57;72.36;102131.16;5017288;28;20452;-72
2022/12/18 03:17:46;;;;;;;7.35;3.85;;;;;;;-0.57;72.55;102141.44;5017832;28;20061;-72
2022/12/18 03:20:18;;;;;;;7.72;3.53;;;;;;;-0.56;72.20;102145.78;5019109;28;20053;-73
2022/12/18 03:22:50;;;;;;;8.93;4.18;;;;;;;-0.55;72.27;102143.28;5019453;28;20046;-72
2022/12/18 03:25:20;;;;;;;6.97;3.50;;;;;;;-0.55;72.47;102129.56;5020620;28;20053;-72
2022/12/18 03:27:52;;;;;;;8.73;3.58;;;;;;;-0.58;72.04;102130.28;5016576;28;20052;-72
2022/12/18 03:30:19;;;;;;;7.88;3.35;;;;;;;-0.54;71.98;102137.38;5020409;28;20494;-72
2022/12/18 03:32:51;;;;;;;9.25;4.60;;;;;;;-0.54;72.42;102139.03;5017726;28;20652;-72
2022/12/18 03:35:25;;;;;;;7.28;3.42;;;;;;;-0.53;72.17;102144.25;5015210;28;20041;-71
2022/12/18 03:37:52;;;;;;;9.88;3.22;;;;;;;-0.55;72.71;102120.19;5015155;28;20516;-72
2022/12/18 03:40:22;;;;;;;4.85;2.90;;;;;;;-0.53;72.41;102128.84;5017869;28;20119;-71
2022/12/18 03:42:54;;;;;;;10.30;3.17;;;;;;;-0.51;72.64;102131.50;5022027;28;20465;-72
2022/12/18 03:45:25;;;;;;;5.40;3.08;;;;;;;-0.54;71.90;102128.75;5016975;28;20060;-72
2022/12/18 03:48:02;;;;;;;7.03;3.22;;;;;;;-0.53;72.15;102125.41;5018400;28;20445;-72
2022/12/18 03:50:38;;;;;;;6.78;4.38;;;;;;;-0.50;72.04;102133.25;5020334;28;20125;-72
2022/12/18 03:53:17;;;;;;;9.02;3.30;;;;;;;-0.49;72.21;102129.88;5017865;28;20664;-71
2022/12/18 03:55:45;;;;;;;8.90;3.80;;;;;;;-0.49;72.71;102130.72;5018819;28;20103;-70
2022/12/18 03:58:18;;;;;;;6.65;2.83;;;;;;;-0.47;72.57;102133.38;5016586;28;20058;-70
2022/12/18 04:00:45;;;;;;;11.00;3.25;;;;;;;-0.48;72.06;102114.56;5020916;28;20059;-70
2022/12/18 04:03:14;;;;;;;7.30;3.00;;;;;;;-0.48;71.98;102111.09;5013011;28;20054;-70
2022/12/18 04:05:44;;;;;;;8.77;3.92;;;;;;;-0.51;72.05;102118.66;5017718;28;20056;-70
2022/12/18 04:08:11;;;;;;;6.25;3.88;;;;;;;-0.47;72.31;102118.00;5016724;28;20041;-70
2022/12/18 04:10:38;;;;;;;6.22;3.38;;;;;;;-0.46;72.00;102114.59;5018098;28;20517;-70
2022/12/18 04:13:05;;;;;;;6.97;3.72;;;;;;;-0.46;71.46;102120.66;5018566;28;20046;-71
2022/12/18 04:15:35;;;;;;;7.57;3.15;;;;;;;-0.45;72.20;102113.81;5020150;28;20060;-70
2022/12/18 04:18:02;;;;;;;6.60;3.03;;;;;;;-0.45;71.65;102118.94;5016724;28;20060;-71
2022/12/18 04:20:29;;;;;;;7.88;3.03;;;;;;;-0.46;72.14;102114.59;5016313;28;20125;-70
2022/12/18 04:22:56;;;;;;;8.52;3.13;;;;;;;-0.44;71.57;102119.81;5017646;28;20068;-70
2022/12/18 04:25:23;;;;;;;7.70;3.30;;;;;;;-0.46;71.68;102130.00;5015781;28;20050;-70
2022/12/18 04:27:50;;;;;;;11.27;3.30;;;;;;;-0.45;72.27;102131.78;5017772;28;20465;-70
2022/12/18 04:30:16;;;;;;;7.30;4.10;;;;;;;-0.46;71.81;102124.88;5019230;28;20049;-70
2022/12/18 04:32:45;;;;;;;9.15;3.30;;;;;;;-0.46;72.08;102130.00;5016615;28;20107;-70
2022/12/18 04:35:11;;;;;;;9.93;3.40;;;;;;;-0.46;71.54;102133.47;5015989;28;20041;-71
2022/12/18 04:37:38;;;;;;;8.80;3.70;;;;;;;-0.45;71.65;102129.22;5018894;28;20509;-70
2022/12/18 04:40:07;;;;;;;8.60;3.33;;;;;;;-0.46;71.90;102120.66;5017727;28;20045;-70
2022/12/18 04:42:33;;;;;;;8.90;3.33;;;;;;;-0.47;71.89;102123.13;5017114;28;20100;-70
2022/12/18 04:45:00;;;;;;;8.23;3.65;;;;;;;-0.46;71.81;102120.66;5017163;28;20049;-70
2022/12/18 04:47:27;;;;;;;8.73;3.45;;;;;;;-0.45;71.98;102126.66;5015597;28;20057;-70
2022/12/18 04:49:55;;;;;;;4.88;2.42;;;;;;;-0.43;72.15;102119.00;5018529;28;20437;-70
2022/12/18 04:52:22;;;;;;;7.47;2.85;;;;;;;-0.44;71.71;102117.25;5018562;28;20099;-70
2022/12/18 04:54:49;;;;;;;9.73;3.65;;;;;;;-0.44;71.62;102123.28;5016367;28;20046;-70
2022/12/18 04:57:15;;;;;;;7.85;3.28;;;;;;;-0.43;71.51;102119.00;5016856;28;20050;-70
2022/12/18 04:59:42;;;;;;;11.52;2.50;;;;;;;-0.45;71.95;102121.53;5019178;28;20049;-70
2022/12/18 05:02:09;;;;;;;10.55;4.65;;;;;;;-0.44;72.01;102128.41;5018794;28;20046;-71
2022/12/18 05:04:35;;;;;;;7.00;2.78;;;;;;;-0.45;71.59;102126.66;5018814;28;20428;-70
2022/12/18 05:07:04;;;;;;;7.97;3.03;;;;;;;-0.45;71.31;102106.13;5020678;28;20119;-70
2022/12/18 05:09:30;;;;;;;8.82;3.72;;;;;;;-0.46;71.29;102110.38;5024540;28;20034;-70
2022/12/18 05:11:57;;;;;;;9.32;3.50;;;;;;;-0.46;71.24;102107.81;5022474;28;20049;-70
2022/12/18 05:14:24;;;;;;;10.55;3.80;;;;;;;-0.46;71.62;102105.25;5021906;28;20586;-70
2022/12/18 05:16:50;;;;;;;6.72;2.88;;;;;;;-0.46;71.42;102091.50;5020044;28;20100;-70
2022/12/18 05:19:17;;;;;;;8.18;3.58;;;;;;;-0.47;71.25;102076.91;5022216;28;20049;-70
2022/12/18 05:21:44;;;;;;;8.07;3.28;;;;;;;-0.46;71.68;102089.84;5022813;28;20046;-71
2022/12/18 05:24:12;;;;;;;7.47;3.80;;;;;;;-0.46;72.08;102073.53;5020978;28;20053;-71
2022/12/18 05:26:39;;;;;;;11.00;3.38;;;;;;;-0.45;71.08;102077.88;5023968;28;20057;-71
2022/12/18 05:29:06;;;;;;;8.23;3.95;;;;;;;-0.48;71.34;102070.91;5019673;28;20046;-71
2022/12/18 05:31:33;;;;;;;7.78;3.22;;;;;;;-0.59;71.56;102053.25;5021229;28;20111;-70
2022/12/18 05:33:59;;;;;;;8.60;2.97;;;;;;;-0.49;71.78;102058.88;5017780;28;20050;-70
2022/12/18 05:36:26;;;;;;;6.68;2.10;;;;;;;-0.48;71.14;102059.78;5023488;28;20049;-70
2022/12/18 05:38:53;;;;;;;10.65;2.97;;;;;;;-0.49;71.19;102063.13;5019263;28;20501;-70
2022/12/18 05:41:21;;;;;;;7.18;3.85;;;;;;;-0.50;71.69;102056.25;5018968;28;20049;-70
2022/12/18 05:43:48;;;;;;;9.63;3.83;;;;;;;-0.51;71.48;102069.91;5019395;28;20480;-70
2022/12/18 05:46:17;;;;;;;8.02;4.72;;;;;;;-0.51;71.41;102064.75;5021148;28;20057;-71
2022/12/18 05:48:44;;;;;;;9.05;3.38;;;;;;;-0.51;71.94;102069.91;5018874;28;20073;-70
2022/12/18 05:51:14;;;;;;;6.18;3.30;;;;;;;-0.52;71.54;102068.13;5017207;28;20061;-70
2022/12/18 05:53:42;;;;;;;10.60;4.30;;;;;;;-0.52;71.61;102062.97;5019939;28;20053;-70
2022/12/18 05:56:11;;;;;;;8.82;3.15;;;;;;;-0.52;72.00;102062.97;5017312;28;20042;-70
2022/12/18 05:58:39;;;;;;;5.72;2.67;;;;;;;-0.54;71.38;102056.88;5021006;28;20107;-71
2022/12/18 06:01:12;;;;;;;7.75;3.13;;;;;;;-0.55;71.36;102057.72;5016591;28;20050;-70
2022/12/18 06:03:39;;;;;;;10.38;4.15;;;;;;;-0.53;71.45;102050.97;5017317;28;20050;-70
2022/12/18 06:06:14;;;;;;;8.05;2.92;;;;;;;-0.54;71.25;102051.75;5022254;28;20056;-71
2022/12/18 06:08:40;;;;;;;5.23;3.07;;;;;;;-0.54;71.64;102046.63;5018941;28;20049;-72
2022/12/18 06:11:07;;;;;;;8.25;3.50;;;;;;;-0.54;71.03;102044.97;5024677;28;20694;-71
2022/12/18 06:13:34;;;;;;;7.10;3.65;;;;;;;-0.53;71.36;102038.13;5021425;28;20099;-70
2022/12/18 06:16:05;;;;;;;7.05;2.85;;;;;;;-0.53;71.29;102040.69;5020797;28;20041;-71
2022/12/18 06:18:32;;;;;;;7.45;3.28;;;;;;;-0.54;71.84;102041.50;5018711;28;20124;-70
2022/12/18 06:21:00;;;;;;;5.22;3.38;;;;;;;-0.54;71.31;102044.06;5020157;28;20459;-70
2022/12/18 06:23:27;;;;;;;5.18;2.55;;;;;;;-0.54;71.38;102047.53;5019604;28;20057;-70
2022/12/18 06:25:54;;;;;;;8.68;3.70;;;;;;;-0.53;71.64;102030.44;5020434;28;20045;-70
2022/12/18 06:28:21;;;;;;;6.18;3.17;;;;;;;-0.53;71.48;102033.00;5021867;28;20124;-69
2022/12/18 06:30:49;;;;;;;7.28;3.80;;;;;;;-0.53;71.37;102030.44;5021911;28;20115;-70
2022/12/18 06:33:17;;;;;;;10.38;4.75;;;;;;;-0.53;71.04;102020.16;5014486;28;20116;-70
2022/12/18 06:35:44;;;;;;;6.13;3.17;;;;;;;-0.53;71.39;102025.31;5017973;28;20049;-70
2022/12/18 06:38:11;;;;;;;10.65;3.22;;;;;;;-0.53;71.29;102026.19;5018047;28;20053;-70
2022/12/18 06:40:38;;;;;;;7.85;2.97;;;;;;;-0.52;71.87;102032.19;5020380;28;20057;-70
2022/12/18 06:43:05;;;;;;;9.07;3.70;;;;;;;-0.53;71.89;102022.72;5018685;28;20136;-71
2022/12/18 06:45:32;;;;;;;12.60;4.55;;;;;;;-0.50;71.50;102022.88;5017498;28;20049;-70
2022/12/18 06:47:59;;;;;;;10.07;4.22;;;;;;;-0.51;71.36;102018.56;5021460;28;20050;-70
2022/12/18 06:50:27;;;;;;;6.10;2.78;;;;;;;-0.50;71.53;102025.44;5019149;28;20050;-70
2022/12/18 06:52:54;;;;;;;6.30;3.35;;;;;;;-0.50;71.11;102020.31;5021750;28;20049;-70
2022/12/18 06:55:21;;;;;;;7.93;4.15;;;;;;;-0.48;71.89;102028.97;5016347;28;20045;-70
2022/12/18 06:57:47;;;;;;;8.88;4.63;;;;;;;-0.47;71.34;102033.28;5020173;28;20052;-70
2022/12/18 07:00:15;;;;;;;9.32;3.45;;;;;;;-0.48;71.63;102029.84;5020496;28;20099;-70
2022/12/18 07:02:41;;;;;;;11.43;3.90;;;;;;;-0.48;71.71;102023.84;5020593;28;20104;-70
2022/12/18 07:05:09;;;;;;;10.13;4.05;;;;;;;-0.48;72.11;102021.28;5020689;28;20049;-70
2022/12/18 07:07:37;;;;;;;10.23;3.67;;;;;;;-0.49;71.68;102022.06;5018536;28;20095;-70
2022/12/18 07:10:04;;;;;;;6.60;3.15;;;;;;;-0.45;71.72;102034.25;5017608;28;20108;-70
2022/12/18 07:12:31;;;;;;;8.02;3.40;;;;;;;-0.44;71.39;102025.72;5020216;28;20101;-70
2022/12/18 07:14:57;;;;;;;8.90;4.07;;;;;;;-0.47;71.51;102029.03;5017152;28;20054;-70
2022/12/18 07:17:24;;;;;;;12.75;4.55;;;;;;;-0.45;71.69;102031.69;5020004;28;20046;-70
2022/12/18 07:19:51;;;;;;;11.55;4.20;;;;;;;-0.41;71.69;102036.13;5020483;28;20049;-71
2022/12/18 07:22:18;;;;;;;11.35;3.45;;;;;;;-0.41;71.93;102040.38;5015628;28;20550;-70
2022/12/18 07:24:46;;;;;;;11.65;4.65;;;;;;;-0.39;71.69;102041.34;5013815;28;20084;-70
2022/12/18 07:27:13;;;;;;;12.43;4.75;;;;;;;-0.39;72.51;102047.34;5016129;28;20758;-71
2022/12/18 07:29:39;;;;;;;9.68;3.78;;;;;;;-0.38;71.52;102041.41;5017707;28;20092;-70
2022/12/18 07:32:06;;;;;;;8.77;3.95;;;;;;;-0.37;71.73;102045.75;5014111;28;20264;-70
2022/12/18 07:34:33;;;;;;;12.07;4.95;;;;;;;-0.35;71.77;102032.97;5015845;28;20057;-70
2022/12/18 07:37:00;;;;;;;9.20;3.38;;;;;;;-0.34;72.12;102027.91;5013494;28;20405;-70
2022/12/18 07:39:27;;;;;;;9.77;4.18;;;;;;;-0.32;72.47;102030.53;5015506;28;20443;-70
2022/12/18 07:44:35;;;;;;;10.95;4.45;;;;;;;-0.30;72.90;102019.53;5014109;28;20050;-70
2022/12/18 07:47:02;;;;;;;11.70;4.20;;;;;;;-0.30;72.33;102023.78;5013981;28;20042;-69
2022/12/18 07:49:29;;;;;;;13.80;4.65;;;;;;;-0.27;72.65;102024.81;5014862;28;20038;-70
2022/12/18 07:51:56;;;;;;;7.82;3.67;;;;;;;-0.44;72.09;101992.34;5017507;28;20046;-70
2022/12/18 07:54:23;;;;;;;9.43;4.22;;;;;;;-0.28;72.47;102020.50;5015456;28;20053;-70
2022/12/18 07:56:50;;;;;;;11.35;4.57;;;;;;;-0.22;72.28;102026.72;5019778;28;20079;-70
2022/12/18 07:59:18;;;;;;;12.32;4.88;;;;;;;-0.22;72.47;102016.44;5018933;28;20103;-70
2022/12/18 08:01:45;;;;;;;8.10;4.15;;;;;;;-0.21;72.51;102015.63;5016549;28;20045;-71
2022/12/18 08:04:11;;;;;;;15.80;6.05;;;;;;;-0.19;72.82;102026.84;5019488;28;20046;-70
2022/12/18 08:06:38;;;;;;;8.80;4.32;;;;;;;-0.17;72.38;102025.22;5019464;28;20072;-70
2022/12/18 08:09:05;;;;;;;11.93;4.97;;;;;;;-0.16;73.20;102027.00;5019273;28;20424;-70
2022/12/18 08:11:32;;;;;;;15.98;4.72;;;;;;;-0.13;72.60;102034.84;5014554;28;20099;-69
2022/12/18 08:13:59;;;;;;;12.07;6.40;;;;;;;-0.12;73.40;102034.00;5015229;28;20086;-70
2022/12/18 08:16:27;;;;;;;14.07;5.82;;;;;;;-0.09;73.31;102034.16;5016888;28;20049;-70
2022/12/18 08:18:54;;;;;;;14.32;6.10;;;;;;;-0.10;72.71;102019.56;5015647;28;20061;-70
2022/12/18 08:21:24;;;;;;;10.52;5.13;;;;;;;-0.09;72.96;102016.16;5015117;28;20042;-70
2022/12/18 08:23:51;;;;;;;8.82;4.53;;;;;;;-0.04;72.70;102028.41;5014059;28;20052;-70
2022/12/18 08:26:19;;;;;;;11.07;3.75;;;;;;;-0.02;73.00;102025.94;5018549;28;20053;-69
2022/12/18 08:28:46;;;;;;;15.02;5.55;;;;;;;-0.01;73.20;102022.53;5014143;28;20049;-69
2022/12/18 08:31:12;;;;;;;11.43;5.45;;;;;;;0.02;73.02;102025.25;5012300;28;20049;-69
2022/12/18 08:33:42;;;;;;;13.05;5.72;;;;;;;0.04;73.53;102020.19;5007659;28;20057;-69
2022/12/18 08:36:10;;;;;;;14.95;6.00;;;;;;;0.06;73.08;102018.53;5012504;28;20064;-69
2022/12/18 08:38:37;;;;;;;14.90;7.30;;;;;;;0.08;73.44;102012.66;5009825;28;20053;-69
2022/12/18 08:41:06;;;;;;;18.33;6.13;;;;;;;0.09;73.35;102004.16;5013074;28;20046;-70
2022/12/18 08:46:17;;;;;;;11.43;5.28;;;;;;;0.15;73.22;102008.69;5013741;28;20129;-69
2022/12/18 08:48:45;;;;;;;13.57;6.20;;;;;;;0.15;73.55;102012.13;5015873;28;20049;-70
2022/12/18 08:51:12;;;;;;;9.57;4.68;;;;;;;0.19;74.01;102021.72;5015573;28;20045;-70
2022/12/18 08:53:39;;;;;;;15.15;5.82;;;;;;;0.18;73.67;102014.84;5010962;28;20516;-70
2022/12/18 08:56:07;;;;;;;10.55;5.07;;;;;;;0.24;73.88;102014.22;5014819;28;20654;-69
2022/12/18 08:58:34;;;;;;;15.30;4.40;;;;;;;0.27;72.97;102008.34;5014963;28;20104;-69
2022/12/18 09:01:02;;;;;;;11.07;5.30;;;;;;;0.29;73.32;102011.88;5014740;28;20041;-69
2022/12/18 09:03:28;;;;;;;19.92;8.27;;;;;;;0.31;72.75;102000.81;5013732;28;20285;-69
2022/12/18 09:05:57;;;;;;;14.05;6.82;;;;;;;0.32;73.52;101999.16;5017669;28;20127;-69
2022/12/18 09:08:23;;;;;;;12.73;5.45;;;;;;;0.36;73.36;102001.00;5014548;28;20100;-69
2022/12/18 09:10:51;;;;;;;13.70;5.53;;;;;;;0.38;73.32;102001.97;5013240;28;20053;-69
2022/12/18 09:13:18;;;;;;;10.07;4.72;;;;;;;0.41;73.47;102010.69;5011319;28;20046;-69
2022/12/18 09:15:47;;;;;;;13.05;5.18;;;;;;;0.43;73.77;102011.63;5020160;28;20110;-69
2022/12/18 09:18:15;;;;;;;14.45;5.32;;;;;;;0.44;73.60;102007.38;5025070;28;20050;-69
2022/12/18 09:20:41;;;;;;;8.00;4.70;;;;;;;0.48;74.19;101998.97;5020645;28;20050;-69
2022/12/18 09:23:10;;;;;;;8.75;4.03;;;;;;;0.52;73.21;102010.28;5019183;28;20057;-69
2022/12/18 09:25:37;;;;;;;12.10;5.25;;;;;;;0.54;73.84;102009.53;5018948;28;20042;-69
2022/12/18 09:28:06;;;;;;;12.38;5.07;;;;;;;0.57;74.08;102008.75;5017070;28;20045;-69
2022/12/18 09:30:34;;;;;;;7.82;4.40;;;;;;;0.58;73.92;102006.25;5021083;28;20065;-69
2022/12/18 09:33:01;;;;;;;12.32;5.32;;;;;;;0.62;74.26;102004.69;5015381;28;20046;-69
2022/12/18 09:35:28;;;;;;;11.73;5.47;;;;;;;0.64;74.08;101993.66;5018868;28;20121;-69
2022/12/18 09:37:55;;;;;;;11.18;5.18;;;;;;;0.67;73.39;101980.91;5020635;28;20048;-69
2022/12/18 09:40:26;;;;;;;11.20;5.03;;;;;;;0.69;73.63;101973.28;5017868;28;20123;-69
2022/12/18 09:43:00;;;;;;;12.13;4.97;;;;;;;0.69;73.30;101963.00;5017494;28;20493;-69
2022/12/18 09:45:28;;;;;;;9.48;5.18;;;;;;;0.75;74.26;101954.66;5018217;28;20106;-69
2022/12/18 09:47:56;;;;;;;14.02;4.45;;;;;;;0.76;74.16;101953.81;5022225;28;20126;-70
2022/12/18 09:50:29;;;;;;;11.35;4.28;;;;;;;0.79;73.50;101959.09;5022409;28;20115;-70
2022/12/18 09:52:58;;;;;;;8.10;3.90;;;;;;;0.82;73.74;101965.22;5024748;28;20100;-69
2022/12/18 09:55:30;;;;;;;15.68;5.38;;;;;;;0.86;74.06;101953.41;5015367;28;20053;-69
2022/12/18 09:58:02;;;;;;;9.25;4.47;;;;;;;0.87;73.64;101957.72;5020459;28;20052;-69
2022/12/18 10:00:29;;;;;;;12.82;5.35;;;;;;;0.90;73.78;101943.25;5020524;28;20088;-69
2022/12/18 10:03:01;;;;;;;14.40;5.57;;;;;;;0.94;73.77;101944.28;5026252;28;20060;-69
2022/12/18 10:05:36;;;;;;;8.93;3.75;;;;;;;0.97;74.34;101933.22;5024686;28;20045;-69
2022/12/18 10:08:09;;;;;;;9.77;4.78;;;;;;;0.98;73.43;101930.72;5026235;28;20116;-69
2022/12/18 10:10:42;;;;;;;10.70;4.75;;;;;;;1.03;73.87;101929.19;5019489;28;20041;-69
2022/12/18 10:13:22;;;;;;;12.82;5.30;;;;;;;1.05;73.87;101922.44;5014889;28;20050;-69
2022/12/18 10:15:59;;;;;;;11.30;5.45;;;;;;;1.08;74.04;101940.56;5024539;28;20060;-69
2022/12/18 10:18:36;;;;;;;11.23;4.18;;;;;;;1.08;73.94;101927.69;5023927;28;20050;-69
2022/12/18 10:21:10;;;;;;;10.80;5.32;;;;;;;1.12;74.13;101923.53;5019917;28;20058;-69
2022/12/18 10:23:47;;;;;;;14.60;4.43;;;;;;;1.16;73.38;101925.38;5025586;28;20053;-70
2022/12/18 10:26:16;;;;;;;11.77;3.05;;;;;;;1.20;74.21;101926.41;5025441;28;20050;-69
2022/12/18 10:28:42;;;;;;;7.40;3.92;;;;;;;1.22;73.81;101919.59;5023492;28;20056;-69
2022/12/18 10:31:17;;;;;;;8.45;4.03;;;;;;;1.26;73.53;101916.34;5024408;28;20050;-70
2022/12/18 10:33:44;;;;;;;8.68;4.30;;;;;;;1.18;73.87;101903.16;5022424;28;20042;-69
2022/12/18 10:36:11;;;;;;;10.88;4.90;;;;;;;1.29;74.18;101921.59;5025500;28;20049;-70
2022/12/18 10:38:38;;;;;;;12.57;5.03;;;;;;;1.32;73.42;101916.56;5022749;28;20057;-69
2022/12/18 10:41:09;;;;;;;13.73;4.85;;;;;;;1.34;74.09;101920.09;5023502;28;20049;-69
2022/12/18 10:43:38;;;;;;;12.18;4.68;;;;;;;1.36;74.00;101923.56;5025308;28;20048;-70
2022/12/18 10:46:18;;;;;;;8.90;3.95;;;;;;;1.39;73.84;101918.53;5022808;28;20053;-69
2022/12/18 10:48:55;;;;;;;6.03;2.28;;;;;;;1.40;73.88;101920.31;5022033;28;20045;-69
2022/12/18 10:51:25;;;;;;;8.20;4.07;;;;;;;1.42;73.67;101928.94;5023348;28;20103;-70
2022/12/18 10:53:57;;;;;;;8.65;4.28;;;;;;;1.40;73.63;101915.16;5028847;28;20068;-70
2022/12/18 10:56:27;;;;;;;11.38;4.53;;;;;;;1.47;73.59;101935.16;5017998;28;20050;-69
2022/12/18 10:59:00;;;;;;;7.72;4.03;;;;;;;1.49;74.45;101923.22;5026226;28;20057;-69
2022/12/18 11:01:28;;;;;;;10.73;3.97;;;;;;;1.51;73.99;101924.16;5023816;28;20074;-69
2022/12/18 11:04:08;;;;;;;14.20;4.75;;;;;;;1.53;73.64;101924.19;5025617;28;20452;-69
2022/12/18 11:06:35;;;;;;;12.25;4.90;;;;;;;1.54;73.78;101916.56;5019549;28;20107;-69
2022/12/18 11:09:03;;;;;;;9.63;5.15;;;;;;;1.56;73.24;101917.47;5023883;28;20099;-69
2022/12/18 11:11:32;;;;;;;10.43;3.88;;;;;;;1.58;73.93;101926.13;5027286;28;20046;-70
2022/12/18 11:14:04;;;;;;;13.25;4.85;;;;;;;1.61;73.42;101922.78;5022874;28;20087;-70
2022/12/18 11:16:37;;;;;;;13.23;5.03;;;;;;;1.63;73.45;101917.72;5024131;28;20095;-70
2022/12/18 11:19:31;;;;;;;11.40;4.68;;;;;;;1.63;73.58;101908.28;5019683;28;20041;-70
2022/12/18 11:21:58;;;;;;;7.10;4.05;;;;;;;1.58;73.51;101884.06;5025671;28;20045;-70
2022/12/18 11:24:30;;;;;;;9.85;5.22;;;;;;;1.67;73.35;101904.97;5020837;28;20803;-70
2022/12/18 11:27:00;;;;;;;7.18;3.72;;;;;;;1.68;73.68;101911.91;5025124;28;20048;-70
2022/12/18 11:29:33;;;;;;;6.53;3.63;;;;;;;1.71;73.40;101906.00;5021608;28;20042;-70
2022/12/18 11:32:25;;;;;;;7.97;4.65;;;;;;;1.72;73.93;101900.00;5023435;28;20481;-70
2022/12/18 11:34:56;;;;;;;11.57;4.32;;;;;;;1.72;73.42;101892.28;5025591;28;20220;-70
2022/12/18 11:37:24;;;;;;;10.40;5.47;;;;;;;1.74;73.72;101900.94;5023891;28;20046;-70
2022/12/18 11:39:56;;;;;;;10.45;4.55;;;;;;;1.75;73.72;101892.38;5018650;28;20646;-70
2022/12/18 11:42:32;;;;;;;9.05;4.05;;;;;;;1.76;73.44;101904.44;5027491;28;20488;-69